Time;durP1;ratioP1;P1;durP2;ratioP2;P2;SDS_P1;SDS_P2;PMS_P1;PMS_P2;Temp;Humidity;BMP_temperature;BMP_pressure;BME280_temperature;BME280_humidity;BME280_pressure;Samples;Min_cycle;Max_cycle;Signal;HPM_P1;HPM_P2
2021/12/10 00:01:53;;;;;;;8.93;1.10;;;6.20;99.90;;;;;;4906336;29;20032;-93
2021/12/10 00:04:29;;;;;;;11.88;1.38;;;6.10;99.90;;;;;;4904126;29;20048;-91
2021/12/10 00:06:58;;;;;;;9.90;1.40;;;6.00;99.90;;;;;;4906070;29;20017;-92
2021/12/10 00:09:43;;;;;;;10.80;1.50;;;6.00;99.90;;;;;;4906588;29;20047;-92
2021/12/10 00:12:18;;;;;;;15.63;1.65;;;5.90;99.90;;;;;;4890740;29;20035;-91
2021/12/10 00:14:44;;;;;;;7.35;1.48;;;5.90;99.90;;;;;;4905027;29;20049;-94
2021/12/10 00:17:12;;;;;;;14.80;2.00;;;5.90;99.90;;;;;;4905786;29;20052;-90
2021/12/10 00:19:46;;;;;;;11.23;1.67;;;5.80;99.90;;;;;;4906017;29;20072;-92
2021/12/10 00:22:26;;;;;;;14.93;1.55;;;5.80;99.90;;;;;;4905555;29;20029;-93
2021/12/10 00:24:55;;;;;;;8.10;1.70;;;5.80;99.90;;;;;;4908531;29;20024;-91
2021/12/10 00:27:30;;;;;;;13.45;1.70;;;5.80;99.90;;;;;;4905986;29;20065;-90
2021/12/10 00:30:05;;;;;;;16.00;2.03;;;5.80;99.90;;;;;;4905799;29;20025;-90
2021/12/10 00:32:36;;;;;;;17.00;2.08;;;5.80;99.90;;;;;;4904967;29;20020;-91
2021/12/10 00:35:17;;;;;;;31.65;4.15;;;5.80;99.90;;;;;;4905824;29;20028;-92
2021/12/10 00:37:53;;;;;;;18.83;3.83;;;5.80;99.90;;;;;;4917407;28;20055;-91
2021/12/10 00:40:26;;;;;;;13.18;2.13;;;5.80;99.90;;;;;;4924958;28;20008;-92
2021/12/10 00:42:54;;;;;;;11.90;1.30;;;5.80;99.90;;;;;;4924499;28;20008;-89
2021/12/10 00:45:24;;;;;;;20.60;1.80;;;5.70;99.90;;;;;;4924695;28;20020;-91
2021/12/10 00:47:51;;;;;;;12.23;1.25;;;5.70;99.90;;;;;;4941119;28;20032;-91
2021/12/10 00:50:27;;;;;;;10.77;1.20;;;5.60;99.90;;;;;;4924639;28;20096;-91
2021/12/10 00:52:54;;;;;;;11.07;1.30;;;5.60;99.90;;;;;;4924617;28;20081;-92
2021/12/10 00:55:24;;;;;;;12.57;2.67;;;5.60;99.90;;;;;;4924326;29;20020;-91
2021/12/10 00:57:52;;;;;;;3.80;0.88;;;5.50;99.90;;;;;;4908844;28;20100;-92
2021/12/10 01:00:24;;;;;;;5.57;0.90;;;5.50;99.90;;;;;;4924189;28;20024;-90
2021/12/10 01:02:50;;;;;;;4.10;0.77;;;5.50;99.90;;;;;;4908759;28;20036;-93
2021/12/10 01:05:17;;;;;;;4.60;0.60;;;5.40;99.90;;;;;;4923643;28;20031;-90
2021/12/10 01:07:44;;;;;;;11.77;0.88;;;5.40;99.90;;;;;;4924117;28;20043;-92
2021/12/10 01:10:27;;;;;;;5.85;0.93;;;5.40;99.90;;;;;;4922912;28;20043;-94
2021/12/10 01:12:56;;;;;;;10.75;1.27;;;5.40;99.90;;;;;;4934213;28;20019;-91
2021/12/10 01:23:51;;;;;;;22.20;2.30;;;5.40;99.90;;;;;;4965524;28;20075;-95
2021/12/10 01:29:09;;;;;;;22.23;2.60;;;5.40;99.90;;;;;;4963438;29;20058;-94
2021/12/10 01:31:36;;;;;;;19.42;3.00;;;5.50;99.90;;;;;;4945931;29;20031;-94
2021/12/10 01:34:03;;;;;;;20.65;2.45;;;5.50;99.90;;;;;;4943802;29;20031;-95
2021/12/10 01:36:29;;;;;;;27.85;3.05;;;5.40;99.90;;;;;;4944331;29;20020;-93
2021/12/10 01:38:55;;;;;;;12.27;2.13;;;5.50;99.90;;;;;;4944412;29;20049;-94
2021/12/10 01:41:24;;;;;;;17.25;3.85;;;5.50;99.90;;;;;;4949158;29;20019;-94
2021/12/10 01:43:52;;;;;;;17.92;2.47;;;5.50;99.90;;;;;;4953806;29;20031;-93
2021/12/10 01:46:28;;;;;;;17.65;2.45;;;5.50;99.90;;;;;;4950244;29;20027;-93
2021/12/10 01:48:59;;;;;;;13.93;2.30;;;5.50;99.90;;;;;;4959492;29;20022;-93
2021/12/10 01:51:30;;;;;;;22.55;3.13;;;5.50;99.90;;;;;;4960096;28;20074;-93
2021/12/10 01:54:02;;;;;;;25.77;3.88;;;5.50;99.90;;;;;;4951898;29;20042;-96
2021/12/10 01:56:31;;;;;;;19.40;3.45;;;5.60;99.90;;;;;;4952480;29;20035;-95
2021/12/10 01:59:00;;;;;;;11.50;2.13;;;5.50;99.90;;;;;;4955524;29;20039;-91
2021/12/10 02:01:31;;;;;;;13.60;2.45;;;5.50;99.90;;;;;;4956013;29;20027;-94
2021/12/10 02:03:59;;;;;;;;;;;5.50;99.90;;;;;;4952659;29;20027;-92
2021/12/10 02:06:24;;;;;;;13.95;2.33;;;5.50;99.90;;;;;;4955826;29;19911;-92
2021/12/10 02:08:51;;;;;;;19.73;3.53;;;5.50;99.90;;;;;;4960647;28;20111;-89
2021/12/10 02:11:17;;;;;;;15.77;2.40;;;5.50;99.90;;;;;;4961840;28;20019;-91
2021/12/10 02:13:44;;;;;;;16.65;2.35;;;5.40;99.90;;;;;;4962118;28;20021;-91
2021/12/10 02:16:11;;;;;;;11.60;1.80;;;5.40;99.90;;;;;;4960494;28;20027;-92
2021/12/10 02:18:37;;;;;;;10.50;1.38;;;5.40;99.90;;;;;;4965778;28;20047;-90
2021/12/10 02:21:03;;;;;;;14.40;1.80;;;5.40;99.90;;;;;;4965738;28;20015;-91
2021/12/10 02:23:32;;;;;;;11.32;1.98;;;5.30;99.90;;;;;;4965230;29;20046;-93
2021/12/10 02:25:58;;;;;;;7.03;1.48;;;5.30;99.90;;;;;;4963892;28;20031;-95
2021/12/10 02:28:24;;;;;;;12.50;1.80;;;5.20;99.90;;;;;;4962968;29;20028;-95
2021/12/10 02:30:50;;;;;;;12.15;1.75;;;5.10;99.90;;;;;;4965631;28;20104;-90
2021/12/10 02:33:16;;;;;;;10.90;2.45;;;5.10;99.90;;;;;;4965627;28;20019;-90
2021/12/10 02:35:43;;;;;;;15.70;2.33;;;5.00;99.90;;;;;;4963276;29;20122;-93
2021/12/10 02:38:09;;;;;;;19.23;2.90;;;5.00;99.90;;;;;;4958582;29;20069;-93
2021/12/10 02:40:36;;;;;;;22.92;2.83;;;5.00;99.90;;;;;;4959110;29;20082;-93
2021/12/10 02:43:07;;;;;;;18.63;2.45;;;4.90;99.90;;;;;;4960475;29;20031;-95
2021/12/10 02:45:33;;;;;;;20.10;2.67;;;5.00;99.90;;;;;;4960015;29;20259;-93
2021/12/10 02:47:59;;;;;;;16.88;2.53;;;4.90;99.90;;;;;;4962576;29;20078;-91
2021/12/10 02:50:28;;;;;;;14.13;2.20;;;4.90;99.90;;;;;;4958832;29;20493;-93
2021/12/10 02:52:53;;;;;;;15.18;2.05;;;4.90;99.90;;;;;;4971173;29;20047;-94
2021/12/10 02:55:20;;;;;;;19.92;2.65;;;4.90;99.90;;;;;;4958063;29;20035;-93
2021/12/10 02:57:53;;;;;;;27.67;4.13;;;4.90;99.90;;;;;;4959147;29;20039;-91
2021/12/10 03:00:23;;;;;;;27.20;3.80;;;4.90;99.90;;;;;;4964754;29;20031;-93
2021/12/10 03:02:49;;;;;;;11.53;2.67;;;4.90;99.90;;;;;;4964445;28;20019;-94
2021/12/10 03:05:15;;;;;;;13.98;2.35;;;4.90;99.90;;;;;;4962006;28;20290;-94
2021/12/10 03:07:42;;;;;;;18.83;3.00;;;4.90;99.90;;;;;;4979060;28;20051;-90
2021/12/10 03:10:14;;;;;;;10.05;1.73;;;4.90;99.90;;;;;;4962291;28;20027;-93
2021/12/10 03:12:40;;;;;;;16.15;2.53;;;4.90;99.90;;;;;;4960402;29;20082;-94
2021/12/10 03:15:07;;;;;;;10.60;3.08;;;4.90;99.90;;;;;;4953946;29;20055;-95
2021/12/10 03:17:33;;;;;;;12.10;2.72;;;4.90;99.90;;;;;;4956263;29;20032;-92
2021/12/10 03:20:03;;;;;;;18.63;3.03;;;4.90;99.90;;;;;;4963105;28;20035;-90
2021/12/10 03:22:29;;;;;;;21.13;2.88;;;4.90;99.90;;;;;;4981303;28;20027;-89
2021/12/10 03:24:54;;;;;;;15.05;2.28;;;5.00;99.90;;;;;;4964228;28;20023;-91
2021/12/10 03:27:23;;;;;;;12.85;1.85;;;4.90;99.90;;;;;;4981362;28;20030;-88
2021/12/10 03:29:50;;;;;;;13.98;2.83;;;4.90;99.90;;;;;;4963770;28;20032;-89
2021/12/10 03:32:20;;;;;;;7.03;1.63;;;4.90;99.90;;;;;;4964610;28;20023;-91
2021/12/10 03:34:46;;;;;;;11.00;1.20;;;4.90;99.90;;;;;;4964655;28;20050;-89
2021/12/10 03:37:13;;;;;;;10.98;1.10;;;4.70;99.90;;;;;;4963958;28;20047;-91
2021/12/10 03:39:39;;;;;;;7.88;1.02;;;4.70;99.90;;;;;;4963866;29;20031;-95
2021/12/10 03:42:06;;;;;;;9.00;1.63;;;4.60;99.90;;;;;;4964373;28;20046;-92
2021/12/10 03:44:33;;;;;;;8.80;1.30;;;4.50;99.90;;;;;;4964185;28;20015;-94
2021/12/10 03:47:00;;;;;;;14.68;1.60;;;4.40;99.90;;;;;;4963969;28;20030;-95
2021/12/10 03:49:26;;;;;;;2.72;0.90;;;4.40;99.90;;;;;;4980133;28;20034;-91
2021/12/10 03:51:52;;;;;;;5.53;1.10;;;4.30;99.90;;;;;;4960338;29;20116;-96
2021/12/10 03:54:18;;;;;;;10.60;1.20;;;4.30;99.90;;;;;;4959005;29;20019;-95
2021/12/10 03:56:46;;;;;;;5.45;1.00;;;4.20;99.90;;;;;;4954769;29;20173;-93
2021/12/10 03:59:14;;;;;;;6.45;1.15;;;4.10;99.90;;;;;;4955173;29;20031;-94
2021/12/10 04:01:43;;;;;;;6.65;0.80;;;4.10;99.90;;;;;;4975918;29;20023;-93
2021/12/10 04:04:14;;;;;;;7.80;1.00;;;4.00;99.90;;;;;;4956195;29;20023;-94
2021/12/10 04:06:40;;;;;;;9.55;1.35;;;4.00;99.90;;;;;;4955928;29;20039;-95
2021/12/10 04:09:07;;;;;;;6.63;1.60;;;4.00;99.90;;;;;;4958697;29;20082;-94
2021/12/10 04:11:33;;;;;;;5.75;0.90;;;3.90;99.90;;;;;;4960984;29;20055;-94
2021/12/10 04:13:59;;;;;;;5.07;1.02;;;3.90;99.90;;;;;;4958775;29;20042;-92
2021/12/10 04:16:28;;;;;;;5.05;0.80;;;3.80;99.90;;;;;;4955670;29;20020;-95
2021/12/10 04:18:57;;;;;;;4.10;0.68;;;3.80;99.90;;;;;;4958743;29;20070;-95
2021/12/10 04:21:24;;;;;;;6.55;1.33;;;3.80;99.90;;;;;;4963240;28;20046;-90
2021/12/10 04:23:50;;;;;;;4.70;0.57;;;3.80;99.90;;;;;;4961059;29;20038;-94
2021/12/10 04:26:20;;;;;;;8.70;2.17;;;3.80;99.90;;;;;;4956474;29;20016;-94
2021/12/10 04:28:46;;;;;;;8.25;1.00;;;3.70;99.90;;;;;;4960502;29;20118;-95
2021/12/10 04:31:13;;;;;;;6.47;1.25;;;3.70;99.90;;;;;;4956403;29;20035;-96
2021/12/10 04:33:38;;;;;;;8.05;1.05;;;3.70;99.90;;;;;;4956057;29;20038;-94
2021/12/10 04:36:07;;;;;;;9.68;1.63;;;3.60;99.90;;;;;;4958160;28;20027;-94
2021/12/10 04:38:33;;;;;;;3.97;0.70;;;3.60;99.90;;;;;;4962680;28;20087;-92
2021/12/10 04:41:04;;;;;;;4.50;0.85;;;3.60;99.90;;;;;;4962586;28;20050;-91
2021/12/10 04:43:30;;;;;;;;;;;3.60;99.90;;;;;;4962536;28;20054;-93
2021/12/10 04:45:58;;;;;;;6.20;0.82;;;3.50;99.90;;;;;;4962969;28;19921;-89
2021/12/10 04:48:25;;;;;;;8.00;1.05;;;3.50;99.90;;;;;;4962053;28;20015;-92
2021/12/10 04:50:51;;;;;;;8.73;1.00;;;3.50;99.90;;;;;;4960494;28;20030;-94
2021/12/10 04:53:19;;;;;;;8.43;1.42;;;3.50;99.90;;;;;;4961022;28;20087;-90
2021/12/10 04:55:46;;;;;;;7.32;1.42;;;3.50;99.90;;;;;;4962406;28;20023;-91
2021/12/10 04:58:12;;;;;;;9.98;1.58;;;3.40;99.90;;;;;;4962172;28;20031;-90
2021/12/10 05:00:43;;;;;;;10.52;1.17;;;3.40;99.90;;;;;;4962744;28;20022;-91
2021/12/10 05:03:10;;;;;;;4.60;0.90;;;3.40;99.90;;;;;;4946928;28;20046;-90
2021/12/10 05:05:37;;;;;;;3.60;0.80;;;3.40;99.90;;;;;;4960880;28;20095;-94
2021/12/10 05:08:04;;;;;;;3.78;0.85;;;3.40;99.90;;;;;;4977929;28;20031;-90
2021/12/10 05:10:31;;;;;;;5.28;0.90;;;3.40;99.90;;;;;;4959769;29;20008;-93
2021/12/10 05:12:58;;;;;;;9.50;1.70;;;3.40;99.90;;;;;;4960836;29;20066;-94
2021/12/10 05:15:26;;;;;;;7.85;1.10;;;3.40;99.90;;;;;;4979003;28;20019;-90
2021/12/10 05:17:56;;;;;;;4.30;1.10;;;3.40;99.90;;;;;;4962348;28;20027;-91
2021/12/10 05:20:37;;;;;;;9.75;1.73;;;3.30;99.90;;;;;;4962538;28;20020;-89
2021/12/10 05:23:04;;;;;;;4.90;0.95;;;3.40;99.90;;;;;;4962687;28;20026;-90
2021/12/10 05:25:30;;;;;;;9.02;1.10;;;3.40;99.90;;;;;;4962838;28;20035;-92
2021/12/10 05:27:57;;;;;;;14.80;1.23;;;3.30;99.90;;;;;;4962691;28;20055;-91
2021/12/10 05:30:27;;;;;;;7.85;1.10;;;3.30;99.90;;;;;;4962787;28;20042;-91
2021/12/10 05:32:53;;;;;;;10.45;1.08;;;3.40;99.90;;;;;;4962345;28;20019;-93
2021/12/10 05:35:20;;;;;;;8.57;1.42;;;3.40;99.90;;;;;;4962641;28;20035;-90
2021/12/10 05:37:45;;;;;;;9.52;1.50;;;3.40;99.90;;;;;;4961864;28;20111;-90
2021/12/10 05:40:14;;;;;;;14.15;1.20;;;3.40;99.90;;;;;;4962701;28;20016;-91
2021/12/10 05:42:41;;;;;;;10.45;1.10;;;3.40;99.90;;;;;;4962600;28;20026;-91
2021/12/10 05:45:08;;;;;;;9.23;0.90;;;3.40;99.90;;;;;;4962617;28;20019;-90
2021/12/10 05:47:34;;;;;;;12.38;0.98;;;3.40;99.90;;;;;;4961563;28;20012;-91
2021/12/10 05:50:00;;;;;;;7.45;1.40;;;3.50;99.90;;;;;;4961506;28;20019;-90
2021/12/10 05:52:26;;;;;;;8.43;1.10;;;3.50;99.90;;;;;;4978481;28;20099;-91
2021/12/10 05:54:52;;;;;;;8.48;1.45;;;3.40;99.90;;;;;;4961139;28;20014;-93
2021/12/10 05:57:19;;;;;;;9.18;1.15;;;3.50;99.90;;;;;;4961852;28;20031;-91
2021/12/10 05:59:45;;;;;;;18.20;1.40;;;3.50;99.90;;;;;;4961597;28;20015;-89
2021/12/10 06:02:12;;;;;;;6.60;1.17;;;3.50;99.90;;;;;;4961599;28;20027;-89
2021/12/10 06:04:38;;;;;;;11.55;1.65;;;3.50;99.90;;;;;;4961975;28;20043;-90
2021/12/10 06:07:06;;;;;;;10.32;1.00;;;3.40;99.90;;;;;;4962321;28;20015;-89
2021/12/10 06:09:33;;;;;;;5.20;0.90;;;3.40;99.90;;;;;;4962098;28;20027;-91
2021/12/10 06:11:59;;;;;;;2.65;0.98;;;3.40;99.90;;;;;;4962207;28;20038;-90
2021/12/10 06:14:25;;;;;;;5.40;0.90;;;3.40;99.90;;;;;;4962379;28;20011;-89
2021/12/10 06:16:54;;;;;;;3.92;0.85;;;3.30;99.90;;;;;;4961672;29;20026;-90
2021/12/10 06:19:20;;;;;;;8.95;0.88;;;3.30;99.90;;;;;;4961894;28;20027;-89
2021/12/10 06:21:46;;;;;;;11.38;1.08;;;3.30;99.90;;;;;;4961916;28;20028;-91
2021/12/10 06:24:13;;;;;;;7.35;1.00;;;3.30;99.90;;;;;;4961554;28;20019;-91
2021/12/10 06:26:38;;;;;;;5.85;0.80;;;3.20;99.90;;;;;;4960936;28;20016;-90
2021/12/10 06:29:06;;;;;;;12.18;1.52;;;3.30;99.90;;;;;;4961770;28;20104;-90
2021/12/10 06:31:33;;;;;;;5.80;0.90;;;3.30;99.90;;;;;;4961552;28;20016;-91
2021/12/10 06:34:00;;;;;;;6.78;0.93;;;3.30;99.90;;;;;;4961963;28;20101;-94
2021/12/10 06:36:27;;;;;;;10.68;1.30;;;3.30;99.90;;;;;;4961849;28;20023;-88
2021/12/10 06:38:53;;;;;;;9.90;1.17;;;3.30;99.90;;;;;;4961610;28;20051;-89
2021/12/10 06:41:20;;;;;;;11.25;1.67;;;3.20;99.90;;;;;;4961929;28;20039;-91
2021/12/10 06:43:46;;;;;;;9.82;1.30;;;3.20;99.90;;;;;;4961695;28;20043;-92
2021/12/10 06:46:14;;;;;;;9.02;2.72;;;3.20;99.90;;;;;;4961594;28;20015;-90
2021/12/10 06:48:44;;;;;;;6.90;1.10;;;3.20;99.90;;;;;;4961733;28;20087;-89
2021/12/10 06:51:19;;;;;;;5.68;1.30;;;3.20;99.90;;;;;;4961851;28;20027;-87
2021/12/10 06:53:45;;;;;;;10.00;1.17;;;3.10;99.90;;;;;;4962072;28;20015;-89
2021/12/10 06:56:13;;;;;;;3.30;0.70;;;3.10;99.90;;;;;;4961706;28;20087;-87
2021/12/10 06:58:39;;;;;;;4.15;1.63;;;3.10;99.90;;;;;;4961530;28;20054;-89
2021/12/10 07:01:13;;;;;;;9.15;1.35;;;3.10;99.90;;;;;;4961597;28;20015;-91
2021/12/10 07:03:41;;;;;;;6.78;1.50;;;3.10;99.90;;;;;;4962391;28;20039;-88
2021/12/10 07:06:08;;;;;;;9.77;2.17;;;3.10;99.90;;;;;;4964764;28;20038;-92
2021/12/10 07:08:36;;;;;;;17.13;1.23;;;3.10;99.90;;;;;;4961936;28;20024;-89
2021/12/10 07:11:04;;;;;;;9.55;1.60;;;3.00;99.90;;;;;;4944779;28;20034;-90
2021/12/10 07:13:34;;;;;;;11.20;1.42;;;3.00;99.90;;;;;;4961732;28;20024;-88
2021/12/10 07:16:00;;;;;;;8.23;1.27;;;3.00;99.90;;;;;;4944907;28;20034;-89
2021/12/10 07:18:26;;;;;;;6.18;1.10;;;3.00;99.90;;;;;;4942145;28;20028;-89
2021/12/10 07:20:52;;;;;;;10.80;1.77;;;3.00;99.90;;;;;;4945236;28;20026;-93
2021/12/10 07:23:19;;;;;;;9.98;1.42;;;2.90;99.90;;;;;;4948092;28;20016;-92
2021/12/10 07:25:45;;;;;;;8.85;1.42;;;3.00;99.90;;;;;;4945738;28;20150;-90
2021/12/10 07:28:11;;;;;;;12.88;1.77;;;3.00;99.90;;;;;;4958434;28;20046;-91
2021/12/10 07:30:37;;;;;;;10.05;1.90;;;3.00;99.90;;;;;;4952751;28;20078;-92
2021/12/10 07:33:04;;;;;;;7.13;1.38;;;3.00;99.90;;;;;;4954883;28;20018;-91
2021/12/10 07:35:30;;;;;;;8.57;1.63;;;3.00;99.90;;;;;;4954666;28;20004;-92
2021/12/10 07:37:56;;;;;;;14.73;2.42;;;3.10;99.90;;;;;;4953825;29;20039;-92
2021/12/10 07:40:25;;;;;;;13.20;2.10;;;3.10;99.90;;;;;;4955364;29;20008;-91
2021/12/10 07:42:51;;;;;;;10.07;1.55;;;3.20;99.90;;;;;;4949849;29;20012;-90
2021/12/10 07:45:18;;;;;;;6.45;1.30;;;3.30;99.90;;;;;;4947274;29;20028;-92
2021/12/10 07:47:45;;;;;;;9.27;1.60;;;3.30;99.90;;;;;;4951273;29;20171;-93
2021/12/10 07:50:16;;;;;;;11.18;1.23;;;3.30;99.90;;;;;;4948679;29;20095;-92
2021/12/10 07:52:44;;;;;;;9.43;0.98;;;3.30;99.90;;;;;;4956525;29;20023;-92
2021/12/10 07:55:13;;;;;;;13.25;1.58;;;3.40;99.90;;;;;;4960984;29;20032;-91
2021/12/10 07:57:38;;;;;;;6.20;1.30;;;3.40;99.90;;;;;;4960678;29;20151;-91
2021/12/10 08:00:12;;;;;;;12.55;3.10;;;3.40;99.90;;;;;;4960981;29;20031;-90
2021/12/10 08:02:38;;;;;;;3.35;0.98;;;3.40;99.90;;;;;;4960883;29;20093;-91
2021/12/10 08:05:07;;;;;;;3.45;0.93;;;3.40;99.90;;;;;;4960795;29;20096;-91
2021/12/10 08:07:33;;;;;;;4.00;0.82;;;3.30;99.90;;;;;;4958683;29;20036;-95
2021/12/10 08:10:00;;;;;;;7.40;1.33;;;3.30;99.90;;;;;;4941496;29;20020;-92
2021/12/10 08:12:26;;;;;;;8.80;1.02;;;3.30;99.90;;;;;;4941491;29;20052;-90
2021/12/10 08:14:55;;;;;;;7.30;1.60;;;3.20;99.90;;;;;;4946495;29;20083;-90
2021/12/10 08:17:23;;;;;;;4.68;0.90;;;3.20;99.90;;;;;;4953091;29;20123;-91
2021/12/10 08:19:51;;;;;;;5.28;1.20;;;3.10;99.90;;;;;;4944934;29;20016;-90
2021/12/10 08:22:19;;;;;;;6.15;0.90;;;3.10;99.90;;;;;;4940454;29;20028;-90
2021/12/10 08:24:47;;;;;;;7.00;1.00;;;3.10;99.90;;;;;;4938091;29;20060;-93
2021/12/10 08:27:14;;;;;;;8.45;1.27;;;3.10;99.90;;;;;;4940368;29;20020;-90
2021/12/10 08:29:42;;;;;;;3.13;0.80;;;3.00;99.90;;;;;;4941014;29;20016;-92
2021/12/10 08:32:11;;;;;;;5.47;1.25;;;3.00;99.90;;;;;;4940312;29;20036;-93
2021/12/10 08:34:37;;;;;;;4.60;1.17;;;3.00;99.90;;;;;;4940971;29;20092;-90
2021/12/10 08:37:03;;;;;;;10.73;1.20;;;3.10;99.90;;;;;;4942980;28;20032;-91
2021/12/10 08:39:29;;;;;;;6.53;0.93;;;3.10;99.90;;;;;;4943270;28;20047;-93
2021/12/10 08:41:56;;;;;;;3.17;0.82;;;3.10;99.90;;;;;;4943521;28;20043;-94
2021/12/10 08:44:23;;;;;;;6.85;1.20;;;3.20;99.90;;;;;;4943471;28;20050;-91
2021/12/10 08:46:48;;;;;;;11.30;1.40;;;3.20;99.90;;;;;;4936888;28;20015;-91
2021/12/10 08:49:15;;;;;;;7.88;1.40;;;3.20;99.90;;;;;;4943516;28;20012;-92
2021/12/10 08:51:44;;;;;;;9.02;2.65;;;3.20;99.90;;;;;;4943106;28;20097;-91
2021/12/10 08:54:10;;;;;;;10.60;1.38;;;3.30;99.90;;;;;;4943446;28;20071;-91
2021/12/10 08:56:39;;;;;;;9.57;1.45;;;3.30;99.90;;;;;;4943237;28;20026;-93
2021/12/10 08:59:07;;;;;;;6.05;1.60;;;3.40;99.90;;;;;;4938612;28;20039;-94
2021/12/10 09:01:37;;;;;;;23.33;4.53;;;3.40;99.90;;;;;;4943028;28;20022;-93
2021/12/10 09:04:06;;;;;;;9.88;2.17;;;3.40;99.90;;;;;;4943421;28;20019;-94
2021/12/10 09:06:35;;;;;;;7.90;1.02;;;3.40;99.90;;;;;;4943291;28;20032;-92
2021/12/10 09:09:03;;;;;;;10.13;1.40;;;3.40;99.90;;;;;;4938393;28;20039;-94
2021/12/10 09:11:30;;;;;;;9.25;1.20;;;3.50;99.90;;;;;;4943475;28;20051;-92
2021/12/10 09:13:57;;;;;;;7.88;1.15;;;3.50;99.90;;;;;;4943554;28;20020;-92
2021/12/10 09:16:27;;;;;;;5.75;0.90;;;3.50;99.90;;;;;;4943583;28;20314;-93
2021/12/10 09:19:00;;;;;;;11.63;2.65;;;3.60;99.90;;;;;;4943621;28;20039;-91
2021/12/10 09:21:26;;;;;;;13.88;1.83;;;3.60;99.90;;;;;;4943569;28;20015;-93
2021/12/10 09:23:57;;;;;;;4.43;0.63;;;3.70;99.90;;;;;;4943386;28;20026;-93
2021/12/10 09:26:27;;;;;;;5.60;1.00;;;3.70;99.90;;;;;;4959460;28;20031;-94
2021/12/10 09:28:54;;;;;;;11.80;0.95;;;3.80;99.90;;;;;;4978999;28;20055;-92
2021/12/10 09:31:24;;;;;;;4.55;0.82;;;3.80;99.90;;;;;;4962342;28;20091;-92
2021/12/10 09:33:55;;;;;;;7.93;0.90;;;3.90;99.90;;;;;;4962601;28;20023;-93
2021/12/10 09:36:21;;;;;;;5.65;0.80;;;3.90;99.90;;;;;;4962467;28;20027;-92
2021/12/10 09:38:49;;;;;;;9.63;0.93;;;4.00;99.90;;;;;;4961801;28;20058;-92
2021/12/10 09:41:17;;;;;;;6.03;0.80;;;4.00;99.90;;;;;;4961963;28;20015;-92
2021/12/10 09:43:44;;;;;;;8.35;1.10;;;4.10;99.90;;;;;;4948895;28;20043;-92
2021/12/10 09:46:12;;;;;;;5.90;1.60;;;4.20;99.90;;;;;;4947266;28;20015;-92
2021/12/10 09:48:40;;;;;;;7.30;2.28;;;4.30;99.90;;;;;;4961910;28;20026;-92
2021/12/10 09:51:08;;;;;;;7.15;1.13;;;4.40;99.90;;;;;;4959551;28;20023;-92
2021/12/10 09:53:39;;;;;;;5.88;0.88;;;4.30;99.90;;;;;;4946455;28;20059;-94
2021/12/10 09:56:05;;;;;;;;;;;4.40;99.90;;;;;;4945048;28;20027;-94
2021/12/10 09:58:31;;;;;;;13.18;1.30;;;4.40;99.90;;;;;;4942537;28;19917;-92
2021/12/10 10:01:04;;;;;;;10.73;1.40;;;4.30;99.90;;;;;;4942714;28;20012;-91
2021/12/10 10:06:04;;;;;;;8.00;1.30;;;4.40;99.90;;;;;;4938237;29;20035;-93
2021/12/10 10:08:34;;;;;;;9.15;1.63;;;4.40;99.90;;;;;;4923165;29;20012;-93
2021/12/10 10:11:09;;;;;;;10.10;1.33;;;4.40;99.90;;;;;;4939791;29;20028;-92
2021/12/10 10:13:41;;;;;;;10.68;1.38;;;4.50;99.90;;;;;;4923603;29;20052;-92
2021/12/10 10:16:09;;;;;;;5.13;1.13;;;4.50;99.90;;;;;;4920711;29;20021;-92
2021/12/10 10:18:36;;;;;;;2.10;0.55;;;4.60;99.90;;;;;;4923509;29;20173;-92
2021/12/10 10:21:09;;;;;;;4.55;0.80;;;4.60;99.90;;;;;;4923267;29;20012;-92
2021/12/10 10:23:37;;;;;;;1.83;0.88;;;4.50;99.90;;;;;;4944990;29;20022;-91
2021/12/10 10:26:07;;;;;;;2.30;0.47;;;4.50;99.90;;;;;;4923535;29;20038;-91
2021/12/10 10:28:34;;;;;;;0.28;0.25;;;4.40;99.90;;;;;;4920823;29;20036;-92
2021/12/10 10:31:05;;;;;;;3.67;0.60;;;4.40;99.90;;;;;;4923073;29;20032;-90
2021/12/10 10:33:34;;;;;;;3.50;0.40;;;4.40;99.90;;;;;;4923332;29;20024;-91
2021/12/10 10:36:06;;;;;;;2.30;0.60;;;4.60;99.90;;;;;;4923694;29;20028;-93
2021/12/10 10:38:33;;;;;;;2.90;0.40;;;4.70;99.90;;;;;;4934057;28;20031;-91
2021/12/10 10:41:06;;;;;;;2.92;0.73;;;4.80;99.90;;;;;;4951876;28;20044;-91
2021/12/10 10:43:32;;;;;;;4.32;0.70;;;4.80;99.90;;;;;;4954802;28;20030;-92
2021/12/10 10:45:58;;;;;;;2.83;0.70;;;4.80;99.90;;;;;;4951491;28;20043;-91
2021/12/10 10:48:26;;;;;;;3.67;0.55;;;4.80;99.90;;;;;;4964214;28;20017;-91
2021/12/10 10:50:59;;;;;;;7.43;0.77;;;4.80;99.90;;;;;;4954845;28;20018;-90
2021/12/10 10:53:29;;;;;;;4.93;0.80;;;4.80;99.90;;;;;;4938103;28;20020;-92
2021/12/10 10:56:06;;;;;;;4.50;1.23;;;4.80;99.90;;;;;;4952762;28;20003;-91
2021/12/10 10:58:53;;;;;;;9.07;0.90;;;4.80;99.90;;;;;;4950634;28;20060;-93
2021/12/10 11:01:35;;;;;;;8.23;1.00;;;4.70;99.90;;;;;;4952845;28;20015;-90
2021/12/10 11:04:18;;;;;;;6.90;0.90;;;4.70;99.90;;;;;;4952944;28;20059;-91
2021/12/10 11:06:54;;;;;;;6.72;2.15;;;4.70;99.90;;;;;;4949247;28;20007;-92
2021/12/10 11:09:27;;;;;;;9.32;1.10;;;4.70;99.90;;;;;;4951294;28;20128;-90
2021/12/10 11:12:04;;;;;;;13.82;1.23;;;4.70;99.90;;;;;;4954240;28;20031;-91
2021/12/10 11:14:39;;;;;;;4.25;1.10;;;4.70;99.90;;;;;;4952350;28;20016;-92
2021/12/10 11:17:27;;;;;;;8.88;0.93;;;4.80;99.90;;;;;;4948846;28;20016;-93
2021/12/10 11:20:00;;;;;;;5.95;1.27;;;4.80;99.90;;;;;;4952447;28;20040;-92
2021/12/10 11:22:27;;;;;;;8.23;1.08;;;4.90;99.90;;;;;;4947467;28;20028;-89
2021/12/10 11:25:00;;;;;;;8.50;1.08;;;5.00;99.90;;;;;;4947380;29;20027;-92
2021/12/10 11:27:30;;;;;;;3.55;0.50;;;5.00;99.90;;;;;;4943119;29;20051;-91
2021/12/10 11:30:01;;;;;;;4.25;0.70;;;5.10;99.90;;;;;;4943008;29;20012;-92
2021/12/10 11:32:37;;;;;;;4.15;0.90;;;5.10;99.90;;;;;;4943128;29;20156;-92
2021/12/10 11:35:11;;;;;;;5.07;1.02;;;5.10;99.90;;;;;;4943152;29;20020;-91
2021/12/10 11:37:45;;;;;;;11.18;1.33;;;5.20;99.90;;;;;;4943155;29;20040;-91
2021/12/10 11:40:42;;;;;;;8.32;1.08;;;5.20;99.90;;;;;;4943050;29;20016;-92
2021/12/10 11:43:43;;;;;;;8.73;1.30;;;5.20;99.90;;;;;;4941477;29;20024;-91
2021/12/10 11:46:44;;;;;;;4.50;0.90;;;5.20;99.90;;;;;;4959073;29;20036;-92
2021/12/10 11:49:17;;;;;;;10.15;1.25;;;5.30;99.90;;;;;;4943011;29;20067;-91
2021/12/10 11:51:45;;;;;;;5.80;1.05;;;5.30;99.90;;;;;;4943034;29;20016;-91
2021/12/10 11:54:23;;;;;;;12.65;2.88;;;5.40;99.90;;;;;;4943817;29;20020;-93
2021/12/10 11:57:02;;;;;;;4.13;0.68;;;5.60;99.90;;;;;;4947186;29;20011;-91
2021/12/10 11:59:36;;;;;;;5.80;0.95;;;5.70;99.90;;;;;;4953507;28;20051;-92
2021/12/10 12:02:22;;;;;;;9.52;1.10;;;5.80;99.90;;;;;;4948152;28;20083;-90
2021/12/10 12:04:52;;;;;;;9.00;1.50;;;5.90;99.90;;;;;;4867324;28;2580773;-92
2021/12/10 12:07:40;;;;;;;8.95;1.20;;;5.90;99.90;;;;;;4967663;28;20090;-91
2021/12/10 12:10:11;;;;;;;5.53;1.75;;;5.90;99.90;;;;;;4958482;28;20051;-93
2021/12/10 12:12:41;;;;;;;6.43;0.90;;;5.80;99.90;;;;;;4962482;28;20106;-93
2021/12/10 12:15:16;;;;;;;3.78;0.85;;;5.80;99.90;;;;;;4963123;28;20031;-92
2021/12/10 12:17:52;;;;;;;6.82;1.10;;;5.70;99.90;;;;;;4963520;28;20053;-92
2021/12/10 12:20:33;;;;;;;7.97;1.33;;;5.70;99.90;;;;;;4962941;28;20059;-93
2021/12/10 12:25:50;;;;;;;8.80;1.40;;;5.70;99.90;;;;;;4974536;28;19941;-92
2021/12/10 12:28:17;;;;;;;6.82;1.15;;;5.60;99.90;;;;;;4962719;28;20034;-91
2021/12/10 12:31:02;;;;;;;8.60;2.10;;;5.80;99.90;;;;;;4963698;28;20023;-91
2021/12/10 12:33:31;;;;;;;3.60;1.20;;;6.00;99.90;;;;;;4964058;28;20011;-92
2021/12/10 12:35:57;;;;;;;5.20;1.08;;;6.60;99.90;;;;;;4971596;28;20022;-91
2021/12/10 12:38:29;;;;;;;4.78;1.20;;;7.20;99.90;;;;;;4961209;28;20083;-92
2021/12/10 12:41:16;;;;;;;4.55;1.10;;;7.90;99.90;;;;;;4955951;28;20074;-92
2021/12/10 12:43:45;;;;;;;3.95;1.00;;;8.50;99.90;;;;;;4954070;28;20058;-94
2021/12/10 12:46:11;;;;;;;4.18;0.90;;;8.70;99.90;;;;;;4956812;28;20055;-93
2021/12/10 12:48:57;;;;;;;4.10;0.95;;;8.80;99.90;;;;;;4954053;28;20386;-95
2021/12/10 12:51:23;;;;;;;9.88;1.67;;;8.80;99.90;;;;;;4954063;28;20039;-92
2021/12/10 12:53:52;;;;;;;4.03;0.90;;;8.50;99.90;;;;;;4955699;28;20023;-92
2021/12/10 12:56:21;;;;;;;6.10;0.75;;;8.60;99.90;;;;;;4953930;28;20047;-93
2021/12/10 12:58:57;;;;;;;5.95;1.67;;;8.40;99.90;;;;;;4955102;28;20357;-91
2021/12/10 13:01:34;;;;;;;6.40;1.05;;;8.20;99.90;;;;;;4955846;28;20020;-93
2021/12/10 13:04:05;;;;;;;8.70;1.00;;;7.80;99.90;;;;;;4952670;28;20120;-93
2021/12/10 13:06:49;;;;;;;7.00;1.20;;;7.60;99.90;;;;;;4955213;28;20039;-92
2021/12/10 13:09:19;;;;;;;10.88;1.17;;;7.50;99.90;;;;;;4954405;28;20015;-91
2021/12/10 13:14:56;;;;;;;7.90;1.13;;;7.30;99.90;;;;;;4961136;28;19899;-92
2021/12/10 13:17:46;;;;;;;3.42;0.73;;;7.10;99.90;;;;;;4951968;28;20059;-93
2021/12/10 13:20:20;;;;;;;3.05;1.25;;;6.80;99.90;;;;;;4956977;28;20043;-92
2021/12/10 13:22:51;;;;;;;5.25;1.45;;;6.60;99.90;;;;;;4960764;28;20055;-94
2021/12/10 13:25:22;;;;;;;2.53;0.70;;;6.30;99.90;;;;;;4972592;28;20035;-93
2021/12/10 13:27:49;;;;;;;;;;;6.10;99.90;;;;;;4976175;28;20016;-92